createdAt,value
2022-11-18T00:00:07.618Z,1.86
2022-11-18T00:01:07.642Z,1.87
2022-11-18T00:02:07.731Z,1.87
2022-11-18T00:03:07.725Z,1.86
2022-11-18T00:04:07.776Z,1.86
2022-11-18T00:05:07.793Z,1.87
2022-11-18T00:06:07.823Z,1.87
2022-11-18T00:07:07.908Z,1.82
2022-11-18T00:08:07.901Z,1.81
2022-11-18T00:09:07.921Z,1.82
2022-11-18T00:10:07.950Z,1.82
2022-11-18T00:11:07.991Z,1.8
2022-11-18T00:12:08.015Z,1.81
2022-11-18T00:13:08.043Z,1.81
2022-11-18T00:14:08.077Z,1.81
2022-11-18T00:15:08.106Z,1.84
2022-11-18T00:16:08.142Z,1.82
2022-11-18T00:17:08.174Z,1.8
2022-11-18T00:18:08.204Z,1.77
2022-11-18T00:19:08.251Z,1.76
2022-11-18T00:20:08.270Z,1.78
2022-11-18T00:21:08.294Z,1.78
2022-11-18T00:22:08.330Z,1.77
2022-11-18T00:23:08.363Z,1.76
2022-11-18T00:24:08.389Z,1.74
2022-11-18T00:25:08.432Z,1.74
2022-11-18T00:26:08.467Z,1.72
2022-11-18T00:27:08.505Z,1.69
2022-11-18T00:28:08.534Z,1.67
2022-11-18T00:29:08.571Z,1.67
2022-11-18T00:30:08.595Z,1.68
2022-11-18T00:31:08.633Z,1.69
2022-11-18T00:32:08.657Z,1.69
2022-11-18T00:33:08.680Z,1.68
2022-11-18T00:34:08.710Z,1.68
2022-11-18T00:35:08.897Z,1.68
2022-11-18T00:36:08.795Z,1.69
2022-11-18T00:37:08.811Z,1.68
2022-11-18T00:38:08.841Z,1.68
2022-11-18T00:39:08.869Z,1.68
2022-11-18T00:40:08.897Z,1.68
2022-11-18T00:41:08.927Z,1.69
2022-11-18T00:42:08.964Z,1.69
2022-11-18T00:43:08.991Z,1.69
2022-11-18T00:44:09.691Z,1.67
2022-11-18T00:45:09.054Z,1.68
2022-11-18T00:46:09.094Z,1.68
2022-11-18T00:47:09.123Z,1.69
2022-11-18T00:48:09.159Z,1.68
2022-11-18T00:49:09.178Z,1.68
2022-11-18T00:50:09.201Z,1.69
2022-11-18T00:51:09.245Z,1.69
2022-11-18T00:52:09.269Z,1.69
2022-11-18T00:53:09.307Z,1.69
2022-11-18T00:54:09.338Z,1.68
2022-11-18T00:55:09.365Z,1.66
2022-11-18T00:56:09.396Z,1.61
2022-11-18T00:57:09.428Z,1.61
2022-11-18T00:58:09.459Z,1.61
2022-11-18T00:59:09.487Z,1.61
2022-11-18T01:00:09.527Z,1.62
2022-11-18T01:01:09.642Z,1.62
2022-11-18T01:02:09.588Z,1.6
2022-11-18T01:03:09.617Z,1.6
2022-11-18T01:04:09.641Z,1.6
2022-11-18T01:05:09.686Z,1.6
2022-11-18T01:06:09.720Z,1.59
2022-11-18T01:07:09.828Z,1.6
2022-11-18T01:08:09.778Z,1.59
2022-11-18T01:09:09.804Z,1.57
2022-11-18T01:10:09.843Z,1.54
2022-11-18T01:11:09.869Z,1.52
2022-11-18T01:12:09.909Z,1.55
2022-11-18T01:13:09.946Z,1.51
2022-11-18T01:14:09.970Z,1.49
2022-11-18T01:15:10.018Z,1.48
2022-11-18T01:16:10.042Z,1.45
2022-11-18T01:17:10.085Z,1.45
2022-11-18T01:18:10.104Z,1.46
2022-11-18T01:19:10.144Z,1.46
2022-11-18T01:20:10.168Z,1.45
2022-11-18T01:21:10.196Z,1.43
2022-11-18T01:22:10.227Z,1.44
2022-11-18T01:23:10.265Z,1.44
2022-11-18T01:24:10.293Z,1.44
2022-11-18T01:25:10.321Z,1.43
2022-11-18T01:26:10.350Z,1.42
2022-11-18T01:27:10.382Z,1.41
2022-11-18T01:28:10.416Z,1.41
2022-11-18T01:29:10.439Z,1.41
2022-11-18T01:30:10.475Z,1.42
2022-11-18T01:31:10.524Z,1.41
2022-11-18T01:32:24.436Z,1.41
2022-11-18T01:33:10.585Z,1.36
2022-11-18T01:34:10.612Z,1.35
2022-11-18T01:35:10.647Z,1.34
2022-11-18T01:36:10.680Z,1.34
2022-11-18T01:37:10.711Z,1.33
2022-11-18T01:38:10.748Z,1.34
2022-11-18T01:39:10.772Z,1.29
2022-11-18T01:40:10.807Z,1.27
2022-11-18T01:41:10.846Z,1.28
2022-11-18T01:42:10.879Z,1.27
2022-11-18T01:43:10.911Z,1.25
2022-11-18T01:44:10.931Z,1.25
2022-11-18T01:45:10.970Z,1.27
2022-11-18T01:46:10.997Z,1.3
2022-11-18T01:47:11.036Z,1.3
2022-11-18T01:48:11.064Z,1.28
2022-11-18T01:49:11.093Z,1.28
2022-11-18T01:50:11.136Z,1.27
2022-11-18T01:51:11.167Z,1.28
2022-11-18T01:52:11.199Z,1.26
2022-11-18T01:53:11.228Z,1.26
2022-11-18T01:54:11.268Z,1.28
2022-11-18T01:55:11.347Z,1.26
2022-11-18T01:56:11.331Z,1.26
2022-11-18T01:57:11.366Z,1.26
2022-11-18T01:58:11.404Z,1.26
2022-11-18T01:59:11.423Z,1.22
2022-11-18T02:00:11.458Z,1.25
2022-11-18T02:01:11.556Z,1.24
2022-11-18T02:02:11.522Z,1.23
2022-11-18T02:03:11.552Z,1.23
2022-11-18T02:04:11.599Z,1.18
2022-11-18T02:05:11.654Z,1.18
2022-11-18T02:06:11.676Z,1.17
2022-11-18T02:07:11.776Z,1.17
2022-11-18T02:08:11.737Z,1.17
2022-11-18T02:09:11.769Z,1.17
2022-11-18T02:10:11.789Z,1.16
2022-11-18T02:11:11.820Z,1.17
2022-11-18T02:12:11.990Z,1.13
2022-11-18T02:13:11.885Z,1.14
2022-11-18T02:14:11.936Z,1.1
2022-11-18T02:15:11.953Z,1.04
2022-11-18T02:16:11.982Z,1.08
2022-11-18T02:17:12.020Z,1.07
2022-11-18T02:18:12.044Z,1.06
2022-11-18T02:19:12.069Z,1.05
2022-11-18T02:20:12.089Z,1.05
2022-11-18T02:21:12.113Z,1.06
2022-11-18T02:22:12.150Z,1.06
2022-11-18T02:23:12.187Z,1.06
2022-11-18T02:24:12.213Z,1.07
2022-11-18T02:25:12.243Z,1.05
2022-11-18T02:26:12.285Z,1.06
2022-11-18T02:27:12.308Z,1.06
2022-11-18T02:28:12.335Z,1.07
2022-11-18T02:29:12.365Z,1.06
2022-11-18T02:30:12.396Z,1.05
2022-11-18T02:31:12.436Z,1.01
2022-11-18T02:32:12.470Z,0.96
2022-11-18T02:33:12.513Z,0.96
2022-11-18T02:34:12.540Z,0.98
2022-11-18T02:35:12.566Z,0.98
2022-11-18T02:36:12.603Z,1.02
2022-11-18T02:37:12.629Z,0.96
2022-11-18T02:38:12.655Z,0.95
2022-11-18T02:39:12.690Z,0.96
2022-11-18T02:40:12.729Z,0.96
2022-11-18T02:41:12.751Z,0.97
2022-11-18T02:42:12.776Z,0.98
2022-11-18T02:43:12.820Z,0.97
2022-11-18T02:44:12.848Z,0.97
2022-11-18T02:45:12.886Z,0.96
2022-11-18T02:46:12.917Z,0.95
2022-11-18T02:47:12.951Z,0.96
2022-11-18T02:48:12.988Z,0.96
2022-11-18T02:49:13.047Z,0.97
2022-11-18T02:50:13.052Z,0.96
2022-11-18T02:51:13.091Z,0.97
2022-11-18T02:52:13.128Z,0.94
2022-11-18T02:53:13.157Z,0.95
2022-11-18T02:54:13.181Z,0.96
2022-11-18T02:55:13.213Z,0.96
2022-11-18T02:56:13.245Z,0.97
2022-11-18T02:57:13.273Z,0.96
2022-11-18T02:58:13.302Z,0.96
2022-11-18T02:59:13.343Z,0.95
2022-11-18T03:00:13.372Z,0.91
2022-11-18T03:01:13.462Z,0.9
2022-11-18T03:02:13.434Z,0.89
2022-11-18T03:03:13.463Z,0.89
2022-11-18T03:04:13.498Z,0.88
2022-11-18T03:05:13.534Z,0.88
2022-11-18T03:06:13.567Z,0.88
2022-11-18T03:07:13.644Z,0.88
2022-11-18T03:08:13.624Z,0.88
2022-11-18T03:09:13.662Z,0.83
2022-11-18T03:10:13.698Z,0.83
2022-11-18T03:11:13.724Z,0.84
2022-11-18T03:12:13.746Z,0.84
2022-11-18T03:13:13.783Z,0.83
2022-11-18T03:14:13.814Z,0.84
2022-11-18T03:15:13.849Z,0.82
2022-11-18T03:16:13.895Z,0.81
2022-11-18T03:17:13.919Z,0.81
2022-11-18T03:18:13.952Z,0.82
2022-11-18T03:19:13.975Z,0.8
2022-11-18T03:20:14.003Z,0.82
2022-11-18T03:21:14.045Z,0.79
2022-11-18T03:22:14.083Z,0.8
2022-11-18T03:23:14.099Z,0.8
2022-11-18T03:24:14.138Z,0.81
2022-11-18T03:25:14.185Z,0.74
2022-11-18T03:26:14.213Z,0.74
2022-11-18T03:27:14.239Z,0.73
2022-11-18T03:28:14.281Z,0.76
2022-11-18T03:29:14.329Z,0.76
2022-11-18T03:30:14.344Z,0.77
2022-11-18T03:31:14.385Z,0.76
2022-11-18T03:32:14.414Z,0.72
2022-11-18T03:33:14.442Z,0.73
2022-11-18T03:34:14.475Z,0.7
2022-11-18T03:35:14.526Z,0.7
2022-11-18T03:36:14.540Z,0.69
2022-11-18T03:37:14.579Z,0.73
2022-11-18T03:38:14.613Z,0.71
2022-11-18T03:39:14.966Z,0.68
2022-11-18T03:40:14.671Z,0.68
2022-11-18T03:41:14.707Z,0.68
2022-11-18T03:42:14.739Z,0.69
2022-11-18T03:43:14.763Z,0.7
2022-11-18T03:44:14.801Z,0.75
2022-11-18T03:45:14.834Z,0.7
2022-11-18T03:46:14.869Z,0.69
2022-11-18T03:47:14.896Z,0.7
2022-11-18T03:48:14.927Z,0.7
2022-11-18T03:49:15.350Z,0.69
2022-11-18T03:50:14.984Z,0.67
2022-11-18T03:51:15.020Z,0.68
2022-11-18T03:52:15.050Z,0.66
2022-11-18T03:53:15.087Z,0.65
2022-11-18T03:54:15.120Z,0.65
2022-11-18T03:55:15.149Z,0.63
2022-11-18T03:56:17.613Z,0.65
2022-11-18T03:57:15.217Z,0.65
2022-11-18T03:58:15.255Z,0.67
2022-11-18T03:59:15.592Z,0.66
2022-11-18T04:00:15.311Z,0.67
2022-11-18T04:01:15.361Z,0.63
2022-11-18T04:02:15.463Z,0.64
2022-11-18T04:03:15.428Z,0.63
2022-11-18T04:04:15.444Z,0.62
2022-11-18T04:05:15.462Z,0.63
2022-11-18T04:06:15.495Z,0.6
2022-11-18T04:07:15.586Z,0.59
2022-11-18T04:08:15.564Z,0.62
2022-11-18T04:09:15.922Z,0.62
2022-11-18T04:10:15.627Z,0.61
2022-11-18T04:11:15.657Z,0.61
2022-11-18T04:12:15.687Z,0.63
2022-11-18T04:13:15.721Z,0.62
2022-11-18T04:14:15.756Z,0.62
2022-11-18T04:15:15.788Z,0.57
2022-11-18T04:16:15.819Z,0.55
2022-11-18T04:17:15.854Z,0.56
2022-11-18T04:18:15.892Z,0.54
2022-11-18T04:19:15.911Z,0.53
2022-11-18T04:20:15.943Z,0.53
2022-11-18T04:21:15.969Z,0.49
2022-11-18T04:22:15.999Z,0.46
2022-11-18T04:23:16.037Z,0.47
2022-11-18T04:24:16.098Z,0.49
2022-11-18T04:25:16.100Z,0.49
2022-11-18T04:26:16.134Z,0.5
2022-11-18T04:27:16.152Z,0.52
2022-11-18T04:28:16.183Z,0.51
2022-11-18T04:29:16.652Z,0.51
2022-11-18T04:30:16.245Z,0.51
2022-11-18T04:31:16.268Z,0.48
2022-11-18T04:32:16.305Z,0.48
2022-11-18T04:33:16.334Z,0.48
2022-11-18T04:34:16.362Z,0.48
2022-11-18T04:35:16.389Z,0.5
2022-11-18T04:36:16.429Z,0.49
2022-11-18T04:37:16.459Z,0.49
2022-11-18T04:38:20.683Z,0.45
2022-11-18T04:39:16.987Z,0.45
2022-11-18T04:40:16.567Z,0.44
2022-11-18T04:41:16.596Z,0.42
2022-11-18T04:42:16.618Z,0.36
2022-11-18T04:43:16.660Z,0.36
2022-11-18T04:44:16.700Z,0.38
2022-11-18T04:45:16.725Z,0.35
2022-11-18T04:46:16.764Z,0.35
2022-11-18T04:47:16.791Z,0.35
2022-11-18T04:48:16.819Z,0.35
2022-11-18T04:49:17.150Z,0.34
2022-11-18T04:50:16.890Z,0.34
2022-11-18T04:51:16.914Z,0.36
2022-11-18T04:52:16.947Z,0.31
2022-11-18T04:53:16.978Z,0.34
2022-11-18T04:54:17.013Z,0.34
2022-11-18T04:55:17.038Z,0.32
2022-11-18T04:56:17.075Z,0.33
2022-11-18T04:57:17.104Z,0.32
2022-11-18T04:58:17.143Z,0.32
2022-11-18T04:59:17.688Z,0.34
2022-11-18T05:00:17.195Z,0.34
2022-11-18T05:01:17.299Z,0.37
2022-11-18T05:02:17.263Z,0.36
2022-11-18T05:03:17.287Z,0.35
2022-11-18T05:04:17.313Z,0.31
2022-11-18T05:05:17.350Z,0.3
2022-11-18T05:06:17.375Z,0.26
2022-11-18T05:07:17.481Z,0.24
2022-11-18T05:08:17.446Z,0.26
2022-11-18T05:09:17.803Z,0.25
2022-11-18T05:10:17.509Z,0.24
2022-11-18T05:11:17.544Z,0.23
2022-11-18T05:12:17.580Z,0.23
2022-11-18T05:13:17.618Z,0.23
2022-11-18T05:14:17.644Z,0.23
2022-11-18T05:15:17.682Z,0.22
2022-11-18T05:16:17.704Z,0.21
2022-11-18T05:17:17.732Z,0.22
2022-11-18T05:18:17.761Z,0.23
2022-11-18T05:19:18.058Z,0.26
2022-11-18T05:20:17.830Z,0.26
2022-11-18T05:21:17.853Z,0.26
2022-11-18T05:22:17.886Z,0.25
2022-11-18T05:23:17.927Z,0.24
2022-11-18T05:24:17.951Z,0.24
2022-11-18T05:25:17.976Z,0.25
2022-11-18T05:26:18.016Z,0.24
2022-11-18T05:27:18.045Z,0.24
2022-11-18T05:28:18.066Z,0.29
2022-11-18T05:29:18.454Z,0.29
2022-11-18T05:30:18.127Z,0.32
2022-11-18T05:31:18.168Z,0.32
2022-11-18T05:32:18.266Z,0.27
2022-11-18T05:33:18.237Z,0.26
2022-11-18T05:34:18.267Z,0.24
2022-11-18T05:35:18.314Z,0.17
2022-11-18T05:36:18.344Z,0.17
2022-11-18T05:37:18.379Z,0.17
2022-11-18T05:38:18.414Z,0.18
2022-11-18T05:39:18.614Z,0.2
2022-11-18T05:40:18.476Z,0.2
2022-11-18T05:41:18.510Z,0.19
2022-11-18T05:42:18.537Z,0.19
2022-11-18T05:43:18.567Z,0.17
2022-11-18T05:44:18.588Z,0.18
2022-11-18T05:45:18.620Z,0.19
2022-11-18T05:46:18.646Z,0.2
2022-11-18T05:47:18.666Z,0.18
2022-11-18T05:48:18.701Z,0.17
2022-11-18T05:49:19.102Z,0.16
2022-11-18T05:50:21.219Z,0.16
2022-11-18T05:51:18.788Z,0.16
2022-11-18T05:52:18.827Z,0.16
2022-11-18T05:53:18.855Z,0.17
2022-11-18T05:54:18.877Z,0.17
2022-11-18T05:55:18.907Z,0.16
2022-11-18T05:56:18.953Z,0.16
2022-11-18T05:57:18.981Z,0.19
2022-11-18T05:58:19.003Z,0.18
2022-11-18T05:59:19.385Z,0.18
2022-11-18T06:00:19.069Z,0.19
2022-11-18T06:01:19.097Z,0.2
2022-11-18T06:02:19.142Z,0.18
2022-11-18T06:03:19.262Z,0.16
2022-11-18T06:04:19.193Z,0.17
2022-11-18T06:05:19.224Z,0.15
2022-11-18T06:06:19.257Z,0.12
2022-11-18T06:07:19.364Z,0.13
2022-11-18T06:08:19.312Z,0.13
2022-11-18T06:09:19.756Z,0.15
2022-11-18T06:10:19.378Z,0.15
2022-11-18T06:11:19.411Z,0.15
2022-11-18T06:12:19.450Z,0.17
2022-11-18T06:13:19.473Z,0.16
2022-11-18T06:14:19.502Z,0.15
2022-11-18T06:15:19.544Z,0.15
2022-11-18T06:16:19.576Z,0.15
2022-11-18T06:17:19.607Z,0.13
2022-11-18T06:18:19.640Z,0.1
2022-11-18T06:19:19.970Z,0.08
2022-11-18T06:20:19.761Z,0.05
2022-11-18T06:21:19.735Z,0.02
2022-11-18T06:22:19.771Z,-0.04
2022-11-18T06:23:19.802Z,-0.07
2022-11-18T06:24:19.834Z,-0.14
2022-11-18T06:25:19.865Z,-0.14
2022-11-18T06:26:19.893Z,-0.14
2022-11-18T06:27:19.929Z,-0.17
2022-11-18T06:28:19.949Z,-0.15
2022-11-18T06:29:24.588Z,-0.13
2022-11-18T06:30:20.020Z,-0.14
2022-11-18T06:31:20.040Z,-0.15
2022-11-18T06:32:20.075Z,-0.13
2022-11-18T06:33:20.113Z,-0.13
2022-11-18T06:34:20.138Z,-0.13
2022-11-18T06:35:20.170Z,-0.13
2022-11-18T06:36:20.207Z,-0.14
2022-11-18T06:37:20.254Z,-0.14
2022-11-18T06:38:20.274Z,-0.15
2022-11-18T06:39:20.767Z,-0.17
2022-11-18T06:40:20.367Z,-0.18
2022-11-18T06:41:20.361Z,-0.2
2022-11-18T06:42:20.395Z,-0.19
2022-11-18T06:43:20.420Z,-0.2
2022-11-18T06:44:20.451Z,-0.19
2022-11-18T06:45:20.620Z,-0.21
2022-11-18T06:46:20.518Z,-0.23
2022-11-18T06:47:20.545Z,-0.24
2022-11-18T06:48:20.572Z,-0.22
2022-11-18T06:49:20.740Z,-0.24
2022-11-18T06:50:20.624Z,-0.25
2022-11-18T06:51:20.662Z,-0.27
2022-11-18T06:52:20.683Z,-0.3
2022-11-18T06:53:20.724Z,-0.29
2022-11-18T06:54:20.743Z,-0.28
2022-11-18T06:55:20.771Z,-0.23
2022-11-18T06:56:20.806Z,-0.23
2022-11-18T06:57:20.831Z,-0.27
2022-11-18T06:58:20.864Z,-0.27
2022-11-18T06:59:20.897Z,-0.29
2022-11-18T07:00:20.928Z,-0.27
2022-11-18T07:01:20.993Z,-0.29
2022-11-18T07:02:20.996Z,-0.29
2022-11-18T07:03:21.021Z,-0.3
2022-11-18T07:04:21.065Z,-0.32
2022-11-18T07:05:21.083Z,-0.37
2022-11-18T07:06:21.112Z,-0.36
2022-11-18T07:07:21.223Z,-0.35
2022-11-18T07:08:21.185Z,-0.36
2022-11-18T07:09:21.351Z,-0.36
2022-11-18T07:10:21.248Z,-0.37
2022-11-18T07:11:21.272Z,-0.36
2022-11-18T07:12:21.305Z,-0.39
2022-11-18T07:13:21.352Z,-0.4
2022-11-18T07:14:21.377Z,-0.43
2022-11-18T07:15:21.398Z,-0.45
2022-11-18T07:16:21.427Z,-0.44
2022-11-18T07:17:21.467Z,-0.47
2022-11-18T07:18:21.499Z,-0.46
2022-11-18T07:19:21.527Z,-0.43
2022-11-18T07:20:21.574Z,-0.46
2022-11-18T07:21:21.600Z,-0.43
2022-11-18T07:22:21.639Z,-0.44
2022-11-18T07:23:21.670Z,-0.46
2022-11-18T07:24:21.696Z,-0.46
2022-11-18T07:25:21.732Z,-0.48
2022-11-18T07:26:21.758Z,-0.51
2022-11-18T07:27:21.794Z,-0.51
2022-11-18T07:28:21.823Z,-0.47
2022-11-18T07:29:21.856Z,-0.5
2022-11-18T07:30:21.880Z,-0.48
2022-11-18T07:31:21.907Z,-0.52
2022-11-18T07:32:21.941Z,-0.5
2022-11-18T07:33:21.961Z,-0.53
2022-11-18T07:34:21.995Z,-0.52
2022-11-18T07:35:22.025Z,-0.56
2022-11-18T07:36:22.066Z,-0.56
2022-11-18T07:37:22.090Z,-0.56
2022-11-18T07:38:22.143Z,-0.55
2022-11-18T07:39:22.151Z,-0.53
2022-11-18T07:40:22.195Z,-0.53
2022-11-18T07:41:22.231Z,-0.54
2022-11-18T07:42:22.263Z,-0.53
2022-11-18T07:43:22.296Z,-0.55
2022-11-18T07:44:22.326Z,-0.54
2022-11-18T07:45:22.350Z,-0.51
2022-11-18T07:46:22.389Z,-0.52
2022-11-18T07:47:22.418Z,-0.51
2022-11-18T07:48:22.450Z,-0.54
2022-11-18T07:49:22.491Z,-0.57
2022-11-18T07:50:22.513Z,-0.58
2022-11-18T07:51:22.554Z,-0.59
2022-11-18T07:52:22.573Z,-0.55
2022-11-18T07:53:22.608Z,-0.51
2022-11-18T07:54:22.641Z,-0.53
2022-11-18T07:55:22.673Z,-0.5
2022-11-18T07:56:22.708Z,-0.52
2022-11-18T07:57:22.740Z,-0.54
2022-11-18T07:58:22.774Z,-0.55
2022-11-18T07:59:22.804Z,-0.51
2022-11-18T08:00:22.839Z,-0.52
2022-11-18T08:01:22.913Z,-0.54
2022-11-18T08:02:22.894Z,-0.54
2022-11-18T08:03:22.932Z,-0.55
2022-11-18T08:04:22.955Z,-0.59
2022-11-18T08:05:23.178Z,-0.58
2022-11-18T08:06:23.020Z,-0.55
2022-11-18T08:07:23.082Z,-0.54
2022-11-18T08:08:23.078Z,-0.53
2022-11-18T08:09:23.100Z,-0.55
2022-11-18T08:10:23.141Z,-0.54
2022-11-18T08:11:23.227Z,-0.55
2022-11-18T08:12:23.195Z,-0.52
2022-11-18T08:13:23.228Z,-0.52
2022-11-18T08:14:23.261Z,-0.54
2022-11-18T08:15:23.278Z,-0.54
2022-11-18T08:16:23.311Z,-0.52
2022-11-18T08:17:23.354Z,-0.5
2022-11-18T08:18:23.385Z,-0.51
2022-11-18T08:19:23.408Z,-0.48
2022-11-18T08:20:23.439Z,-0.48
2022-11-18T08:21:23.471Z,-0.48
2022-11-18T08:22:23.513Z,-0.49
2022-11-18T08:23:27.341Z,-0.48
2022-11-18T08:24:23.565Z,-0.5
2022-11-18T08:25:23.600Z,-0.49
2022-11-18T08:26:23.640Z,-0.48
2022-11-18T08:27:23.671Z,-0.49
2022-11-18T08:28:23.769Z,-0.49
2022-11-18T08:29:25.419Z,-0.5
2022-11-18T08:30:23.764Z,-0.52
2022-11-18T08:31:23.786Z,-0.51
2022-11-18T08:32:23.827Z,-0.49
2022-11-18T08:33:23.868Z,-0.48
2022-11-18T08:34:23.886Z,-0.5
2022-11-18T08:35:23.914Z,-0.53
2022-11-18T08:36:23.951Z,-0.52
2022-11-18T08:37:23.981Z,-0.57
2022-11-18T08:38:24.016Z,-0.56
2022-11-18T08:39:24.049Z,-0.54
2022-11-18T08:40:24.071Z,-0.51
2022-11-18T08:41:24.112Z,-0.53
2022-11-18T08:42:24.550Z,-0.53
2022-11-18T08:43:24.181Z,-0.56
2022-11-18T08:44:24.215Z,-0.57
2022-11-18T08:45:24.248Z,-0.57
2022-11-18T08:46:24.268Z,-0.54
2022-11-18T08:47:24.299Z,-0.55
2022-11-18T08:48:24.325Z,-0.52
2022-11-18T08:49:28.264Z,-0.53
2022-11-18T08:50:24.523Z,-0.57
2022-11-18T08:51:24.420Z,-0.57
2022-11-18T08:52:24.440Z,-0.56
2022-11-18T08:53:24.483Z,-0.51
2022-11-18T08:54:24.526Z,-0.53
2022-11-18T08:55:24.535Z,-0.56
2022-11-18T08:56:24.574Z,-0.55
2022-11-18T08:57:24.607Z,-0.51
2022-11-18T08:58:24.636Z,-0.56
2022-11-18T08:59:24.665Z,-0.57
2022-11-18T09:00:24.849Z,-0.58
2022-11-18T09:01:24.822Z,-0.57
2022-11-18T09:02:24.772Z,-0.58
2022-11-18T09:03:24.779Z,-0.58
2022-11-18T09:04:24.826Z,-0.58
2022-11-18T09:05:24.850Z,-0.56
2022-11-18T09:06:24.898Z,-0.56
2022-11-18T09:07:25.030Z,-0.55
2022-11-18T09:08:24.949Z,-0.54
2022-11-18T09:09:24.975Z,-0.55
2022-11-18T09:10:24.999Z,-0.54
2022-11-18T09:11:25.039Z,-0.55
2022-11-18T09:12:25.072Z,-0.56
2022-11-18T09:13:49.757Z,-0.55
2022-11-18T09:15:25.146Z,-0.56
2022-11-18T09:16:28.170Z,-0.5
2022-11-18T09:17:25.207Z,-0.5
2022-11-18T09:18:25.237Z,-0.56
2022-11-18T09:19:46.281Z,-0.56
2022-11-18T09:20:25.297Z,-0.55
2022-11-18T09:21:25.334Z,-0.54
2022-11-18T09:22:25.350Z,-0.54
2022-11-18T09:23:25.369Z,-0.56
2022-11-18T09:24:25.398Z,-0.58
2022-11-18T09:25:25.430Z,-0.55
2022-11-18T09:26:25.471Z,-0.55
2022-11-18T09:27:25.493Z,-0.54
2022-11-18T09:28:25.531Z,-0.56
2022-11-18T09:29:25.694Z,-0.56
2022-11-18T09:30:25.600Z,-0.57
2022-11-18T09:31:25.632Z,-0.62
2022-11-18T09:32:25.668Z,-0.64
2022-11-18T09:33:25.684Z,-0.62
2022-11-18T09:34:25.716Z,-0.65
2022-11-18T09:35:25.742Z,-0.66
2022-11-18T09:36:25.773Z,-0.63
2022-11-18T09:37:25.809Z,-0.66
2022-11-18T09:38:25.843Z,-0.68
2022-11-18T09:39:25.865Z,-0.64
2022-11-18T09:40:25.894Z,-0.66
2022-11-18T09:41:25.922Z,-0.68
2022-11-18T09:42:25.963Z,-0.71
2022-11-18T09:43:25.988Z,-0.67
2022-11-18T09:44:26.006Z,-0.72
2022-11-18T09:45:26.049Z,-0.69
2022-11-18T09:46:26.076Z,-0.72
2022-11-18T09:47:26.099Z,-0.73
2022-11-18T09:48:26.125Z,-0.74
2022-11-18T09:49:26.151Z,-0.71
2022-11-18T09:50:47.887Z,-0.72
2022-11-18T09:51:26.222Z,-0.74
2022-11-18T09:52:26.921Z,-0.71
2022-11-18T09:53:26.333Z,-0.71
2022-11-18T09:54:26.324Z,-0.71
2022-11-18T09:55:26.356Z,-0.76
2022-11-18T09:56:26.442Z,-0.77
2022-11-18T09:57:26.401Z,-0.77
2022-11-18T09:58:26.434Z,-0.72
2022-11-18T09:59:26.472Z,-0.72
2022-11-18T10:00:26.497Z,-0.71
2022-11-18T10:01:27.897Z,-0.71
2022-11-18T10:02:26.561Z,-0.69
2022-11-18T10:03:26.591Z,-0.7
2022-11-18T10:04:26.615Z,-0.74
2022-11-18T10:05:26.643Z,-0.75
2022-11-18T10:06:26.683Z,-0.71
2022-11-18T10:07:26.773Z,-0.67
2022-11-18T10:08:26.731Z,-0.62
2022-11-18T10:09:26.768Z,-0.63
2022-11-18T10:10:26.794Z,-0.63
2022-11-18T10:11:26.827Z,-0.69
2022-11-18T10:12:26.858Z,-0.71
2022-11-18T10:13:27.009Z,-0.72
2022-11-18T10:14:26.937Z,-0.72
2022-11-18T10:15:26.953Z,-0.72
2022-11-18T10:16:26.985Z,-0.73
2022-11-18T10:17:27.023Z,-0.74
2022-11-18T10:18:57.929Z,-0.72
2022-11-18T10:19:27.073Z,-0.74
2022-11-18T10:20:27.111Z,-0.76
2022-11-18T10:21:27.151Z,-0.76
2022-11-18T10:22:27.172Z,-0.79
2022-11-18T10:23:27.202Z,-0.79
2022-11-18T10:24:27.245Z,-0.8
2022-11-18T10:25:27.262Z,-0.82
2022-11-18T10:26:27.298Z,-0.81
2022-11-18T10:27:27.331Z,-0.79
2022-11-18T10:28:27.361Z,-0.74
2022-11-18T10:29:27.388Z,-0.75
2022-11-18T10:30:27.402Z,-0.74
2022-11-18T10:31:27.426Z,-0.75
2022-11-18T10:32:27.461Z,-0.75
2022-11-18T10:33:27.495Z,-0.71
2022-11-18T10:34:27.535Z,-0.72
2022-11-18T10:35:27.557Z,-0.71
2022-11-18T10:36:27.589Z,-0.77
2022-11-18T10:37:45.331Z,-0.73
2022-11-18T10:38:27.634Z,-0.71
2022-11-18T10:39:27.662Z,-0.72
2022-11-18T10:40:27.694Z,-0.75
2022-11-18T10:41:27.728Z,-0.8
2022-11-18T10:42:27.756Z,-0.78
2022-11-18T10:43:27.792Z,-0.82
2022-11-18T10:44:27.821Z,-0.82
2022-11-18T10:45:27.853Z,-0.83
2022-11-18T10:46:27.919Z,-0.8
2022-11-18T10:47:27.936Z,-0.78
2022-11-18T10:48:27.961Z,-0.82
2022-11-18T10:49:27.995Z,-0.82
2022-11-18T10:50:28.018Z,-0.82
2022-11-18T10:51:28.051Z,-0.79
2022-11-18T10:52:28.077Z,-0.81
2022-11-18T10:53:28.105Z,-0.85
2022-11-18T10:54:28.135Z,-0.86
2022-11-18T10:55:28.175Z,-0.9
2022-11-18T10:56:28.207Z,-0.91
2022-11-18T10:57:28.241Z,-0.92
2022-11-18T10:58:28.266Z,-0.94
2022-11-18T10:59:28.298Z,-0.95
2022-11-18T11:00:28.336Z,-0.96
2022-11-18T11:01:28.393Z,-0.97
2022-11-18T11:02:28.395Z,-0.98
2022-11-18T11:03:28.426Z,-0.95
2022-11-18T11:04:28.465Z,-0.99
2022-11-18T11:05:28.501Z,-1.01
2022-11-18T11:06:28.523Z,-1.03
2022-11-18T11:07:28.645Z,-1.04
2022-11-18T11:08:36.990Z,-1.03
2022-11-18T11:09:28.615Z,-0.98
2022-11-18T11:10:28.644Z,-0.98
2022-11-18T11:11:28.767Z,-0.97
2022-11-18T11:12:28.708Z,-0.94
2022-11-18T11:13:28.740Z,-0.95
2022-11-18T11:14:28.772Z,-0.85
2022-11-18T11:15:28.820Z,-0.87
2022-11-18T11:16:28.845Z,-0.84
2022-11-18T11:17:28.862Z,-0.81
2022-11-18T11:18:28.902Z,-0.79
2022-11-18T11:19:28.923Z,-0.8
2022-11-18T11:20:28.953Z,-0.82
2022-11-18T11:21:28.988Z,-0.78
2022-11-18T11:22:29.024Z,-0.81
2022-11-18T11:23:29.051Z,-0.83
2022-11-18T11:24:29.087Z,-0.83
2022-11-18T11:25:29.167Z,-0.87
2022-11-18T11:28:29.218Z,-0.84
2022-11-18T11:29:29.242Z,-0.84
2022-11-18T11:30:29.279Z,-0.82
2022-11-18T11:31:29.305Z,-0.81
2022-11-18T11:32:29.336Z,-0.82
2022-11-18T11:33:29.369Z,-0.78
2022-11-18T11:34:29.395Z,-0.8
2022-11-18T11:35:29.430Z,-0.81
2022-11-18T11:36:29.463Z,-0.83
2022-11-18T11:37:29.489Z,-0.8
2022-11-18T11:38:29.539Z,-0.8
2022-11-18T11:39:29.556Z,-0.78
2022-11-18T11:40:29.587Z,-0.79
2022-11-18T11:41:29.623Z,-0.79
2022-11-18T11:42:29.654Z,-0.79
2022-11-18T11:43:29.686Z,-0.77
2022-11-18T11:44:29.714Z,-0.77
2022-11-18T11:45:29.749Z,-0.75
2022-11-18T11:46:29.777Z,-0.77
2022-11-18T11:47:29.811Z,-0.75
2022-11-18T11:48:29.843Z,-0.73
2022-11-18T11:49:29.871Z,-0.74
2022-11-18T11:50:29.895Z,-0.73
2022-11-18T11:51:29.932Z,-0.72
2022-11-18T11:52:29.957Z,-0.74
2022-11-18T11:53:29.992Z,-0.7
2022-11-18T11:54:30.031Z,-0.67
2022-11-18T11:55:30.075Z,-0.71
2022-11-18T11:56:30.095Z,-0.7
2022-11-18T11:57:30.121Z,-0.72
2022-11-18T11:58:30.156Z,-0.71
2022-11-18T11:59:30.185Z,-0.74
2022-11-18T12:00:30.214Z,-0.7
2022-11-18T12:01:30.233Z,-0.69
2022-11-18T12:02:30.337Z,-0.67
2022-11-18T12:03:30.307Z,-0.66
2022-11-18T12:04:30.333Z,-0.63
2022-11-18T12:05:30.361Z,-0.63
2022-11-18T12:06:30.395Z,-0.6
2022-11-18T12:07:30.468Z,-0.61
2022-11-18T12:08:30.451Z,-0.58
2022-11-18T12:09:30.482Z,-0.61
2022-11-18T12:10:30.511Z,-0.58
2022-11-18T12:11:30.547Z,-0.61
2022-11-18T12:12:30.571Z,-0.65
2022-11-18T12:13:30.597Z,-0.6
2022-11-18T12:14:30.642Z,-0.62
2022-11-18T12:15:30.672Z,-0.64
2022-11-18T12:16:30.697Z,-0.63
2022-11-18T12:17:30.734Z,-0.64
2022-11-18T12:18:30.751Z,-0.63
2022-11-18T12:19:30.790Z,-0.61
2022-11-18T12:20:30.814Z,-0.61
2022-11-18T12:21:34.945Z,-0.55
2022-11-18T12:22:30.866Z,-0.53
2022-11-18T12:23:30.894Z,-0.52
2022-11-18T12:24:30.941Z,-0.51
2022-11-18T12:25:30.966Z,-0.51
2022-11-18T12:26:30.989Z,-0.54
2022-11-18T12:27:31.003Z,-0.52
2022-11-18T12:28:31.039Z,-0.58
2022-11-18T12:29:31.076Z,-0.62
2022-11-18T12:30:31.108Z,-0.65
2022-11-18T12:31:31.140Z,-0.64
2022-11-18T12:32:31.180Z,-0.65
2022-11-18T12:33:31.190Z,-0.65
2022-11-18T12:34:31.220Z,-0.65
2022-11-18T12:35:31.256Z,-0.65
2022-11-18T12:36:31.292Z,-0.65
2022-11-18T12:37:31.331Z,-0.66
2022-11-18T12:38:31.365Z,-0.65
2022-11-18T12:39:31.390Z,-0.67
2022-11-18T12:40:31.420Z,-0.68
2022-11-18T12:41:31.451Z,-0.67
2022-11-18T12:42:31.491Z,-0.66
2022-11-18T12:43:31.518Z,-0.64
2022-11-18T12:44:31.558Z,-0.64
2022-11-18T12:45:31.594Z,-0.64
2022-11-18T12:46:31.626Z,-0.68
2022-11-18T12:47:31.666Z,-0.68
2022-11-18T12:48:31.701Z,-0.7
2022-11-18T12:49:31.735Z,-0.7
2022-11-18T12:50:31.768Z,-0.72
2022-11-18T12:51:31.799Z,-0.7
2022-11-18T12:52:31.825Z,-0.72
2022-11-18T12:53:31.864Z,-0.73
2022-11-18T12:54:31.892Z,-0.71
2022-11-18T12:55:31.938Z,-0.72
2022-11-18T12:56:31.963Z,-0.72
2022-11-18T12:57:31.994Z,-0.74
2022-11-18T12:58:32.032Z,-0.75
2022-11-18T12:59:32.082Z,-0.73
2022-11-18T13:00:32.121Z,-0.74
2022-11-18T13:01:32.159Z,-0.74
2022-11-18T13:02:32.187Z,-0.73
2022-11-18T13:03:32.210Z,-0.75
2022-11-18T13:04:32.246Z,-0.76
2022-11-18T13:05:32.282Z,-0.73
2022-11-18T13:06:32.325Z,-0.72
2022-11-18T13:07:32.454Z,-0.74
2022-11-18T13:08:32.382Z,-0.76
2022-11-18T13:09:32.422Z,-0.75